Time;durP1;ratioP1;P1;durP2;ratioP2;P2;SDS_P1;SDS_P2;PMS_P1;PMS_P2;Temp;Humidity;BMP_temperature;BMP_pressure;BME280_temperature;BME280_humidity;BME280_pressure;Samples;Min_cycle;Max_cycle;Signal;HPM_P1;HPM_P2
2023/10/12 00:01:57;;;;;;;5.72;3.60;;;;;;;;;;5029639;28;20204;-67
2023/10/12 00:04:38;;;;;;;10.32;4.53;;;;;;;;;;5031079;28;20207;-66
2023/10/12 00:07:10;;;;;;;11.77;3.83;;;;;;;;;;5028863;28;20242;-66
2023/10/12 00:09:39;;;;;;;6.47;3.85;;;;;;;;;;5032729;28;20234;-67
2023/10/12 00:12:08;;;;;;;6.15;3.83;;;;;;;;;;5029152;28;20199;-66
2023/10/12 00:14:36;;;;;;;8.02;3.83;;;;;;;;;;5033079;28;20208;-66
2023/10/12 00:17:06;;;;;;;8.80;3.85;;;;;;;;;;5027884;28;20204;-67
2023/10/12 00:19:33;;;;;;;7.82;4.05;;;;;;;;;;5026225;28;20215;-66
2023/10/12 00:22:04;;;;;;;10.02;4.32;;;;;;;;;;5021229;28;20236;-66
2023/10/12 00:24:35;;;;;;;6.82;4.25;;;;;;;;;;5020969;28;20203;-66
2023/10/12 00:27:04;;;;;;;7.30;3.72;;;;;;;;;;5026596;28;20220;-66
2023/10/12 00:29:34;;;;;;;9.45;3.83;;;;;;;;;;5028044;28;20196;-66
2023/10/12 00:32:04;;;;;;;7.47;4.03;;;;;;;;;;5031851;28;20234;-66
2023/10/12 00:34:35;;;;;;;16.17;3.90;;;;;;;;;;5029370;28;20204;-67
2023/10/12 00:37:04;;;;;;;7.13;3.60;;;;;;;;;;5038308;28;20221;-66
2023/10/12 00:39:56;;;;;;;9.30;3.85;;;;;;;;;;5030056;28;20273;-66
2023/10/12 00:42:24;;;;;;;7.63;3.78;;;;;;;;;;5032779;28;20200;-67
2023/10/12 00:44:53;;;;;;;7.32;3.90;;;;;;;;;;5027462;28;20203;-66
2023/10/12 00:47:29;;;;;;;6.28;4.03;;;;;;;;;;5029585;28;20220;-66
2023/10/12 00:49:57;;;;;;;5.63;3.60;;;;;;;;;;5035779;28;20295;-66
2023/10/12 00:52:26;;;;;;;8.68;3.95;;;;;;;;;;5030893;28;20204;-66
2023/10/12 00:55:02;;;;;;;8.82;4.03;;;;;;;;;;5028228;28;20204;-67
2023/10/12 00:57:31;;;;;;;4.78;3.55;;;;;;;;;;5031130;28;20204;-66
2023/10/12 01:00:01;;;;;;;6.57;3.90;;;;;;;;;;5034037;28;20200;-66
2023/10/12 01:02:36;;;;;;;7.35;3.70;;;;;;;;;;5034343;28;20199;-67
2023/10/12 01:05:04;;;;;;;7.88;3.75;;;;;;;;;;5027791;28;20286;-66
2023/10/12 01:07:36;;;;;;;7.55;4.20;;;;;;;;;;5031760;28;20430;-62
2023/10/12 01:10:09;;;;;;;6.07;3.55;;;;;;;;;;5028870;28;20261;-62
2023/10/12 01:12:38;;;;;;;8.07;4.00;;;;;;;;;;5034294;28;20203;-63
2023/10/12 01:15:10;;;;;;;6.55;4.28;;;;;;;;;;5026306;28;20200;-63
2023/10/12 01:17:40;;;;;;;10.80;4.30;;;;;;;;;;5034701;28;20200;-62
2023/10/12 01:20:16;;;;;;;6.13;3.63;;;;;;;;;;5032962;28;20310;-63
2023/10/12 01:22:47;;;;;;;10.20;3.67;;;;;;;;;;5029283;28;20872;-63
2023/10/12 01:25:21;;;;;;;6.72;3.75;;;;;;;;;;5026639;28;20211;-64
2023/10/12 01:27:49;;;;;;;8.68;4.18;;;;;;;;;;5029700;28;20220;-63
2023/10/12 01:30:21;;;;;;;6.63;3.97;;;;;;;;;;5032202;28;20203;-62
2023/10/12 01:32:53;;;;;;;10.00;3.85;;;;;;;;;;5032879;28;20195;-62
2023/10/12 01:35:26;;;;;;;11.02;4.20;;;;;;;;;;5029632;28;20286;-63
2023/10/12 01:38:00;;;;;;;8.82;4.10;;;;;;;;;;5026860;28;20254;-63
2023/10/12 01:40:27;;;;;;;10.18;3.60;;;;;;;;;;5035385;28;20227;-63
2023/10/12 01:42:56;;;;;;;9.20;4.25;;;;;;;;;;5033802;28;20231;-63
2023/10/12 01:45:35;;;;;;;6.22;3.40;;;;;;;;;;5029948;28;20207;-63
2023/10/12 01:48:11;;;;;;;6.45;3.53;;;;;;;;;;5030214;28;20228;-62
2023/10/12 01:50:38;;;;;;;6.15;3.75;;;;;;;;;;5034445;28;20206;-63
2023/10/12 01:53:17;;;;;;;5.93;3.97;;;;;;;;;;5037948;28;20208;-62
2023/10/12 01:55:44;;;;;;;10.40;4.20;;;;;;;;;;5026661;28;20200;-63
2023/10/12 01:58:12;;;;;;;9.20;3.92;;;;;;;;;;5032294;28;20188;-63
2023/10/12 02:00:42;;;;;;;8.02;3.67;;;;;;;;;;5032840;28;20212;-62
2023/10/12 02:03:17;;;;;;;9.48;4.03;;;;;;;;;;5039991;28;20203;-62
2023/10/12 02:05:47;;;;;;;7.13;3.95;;;;;;;;;;5038245;28;20283;-62
2023/10/12 02:08:17;;;;;;;6.07;3.58;;;;;;;;;;5030486;28;20227;-63
2023/10/12 02:10:55;;;;;;;6.30;4.03;;;;;;;;;;5035473;28;20291;-62
2023/10/12 02:13:22;;;;;;;11.38;4.00;;;;;;;;;;5041631;28;20246;-62
2023/10/12 02:15:50;;;;;;;8.23;4.20;;;;;;;;;;5038371;28;20207;-66
2023/10/12 02:18:18;;;;;;;6.72;3.60;;;;;;;;;;5030690;28;20219;-66
2023/10/12 02:21:01;;;;;;;9.38;3.90;;;;;;;;;;5035222;28;20215;-66
2023/10/12 02:23:36;;;;;;;7.07;3.92;;;;;;;;;;5039841;28;20200;-67
2023/10/12 02:26:07;;;;;;;6.07;4.05;;;;;;;;;;5038037;28;20204;-67
2023/10/12 02:28:37;;;;;;;8.70;4.00;;;;;;;;;;5032994;28;20220;-67
2023/10/12 02:31:05;;;;;;;11.30;3.75;;;;;;;;;;5039536;28;20258;-67
2023/10/12 02:33:36;;;;;;;7.00;3.35;;;;;;;;;;5038195;28;20208;-67
2023/10/12 02:36:06;;;;;;;7.32;4.03;;;;;;;;;;5037472;28;20204;-67
2023/10/12 02:38:35;;;;;;;6.03;3.67;;;;;;;;;;5036112;28;20203;-67
2023/10/12 02:41:03;;;;;;;6.57;3.80;;;;;;;;;;5038178;28;20204;-67
2023/10/12 02:43:32;;;;;;;9.27;4.10;;;;;;;;;;5042374;28;20211;-67
2023/10/12 02:46:06;;;;;;;8.45;4.50;;;;;;;;;;5041856;28;20208;-67
2023/10/12 02:48:36;;;;;;;8.80;3.90;;;;;;;;;;5034920;28;20251;-67
2023/10/12 02:51:06;;;;;;;9.13;3.58;;;;;;;;;;5034475;28;20200;-67
2023/10/12 02:53:35;;;;;;;7.95;4.05;;;;;;;;;;5033593;28;20254;-67
2023/10/12 02:56:03;;;;;;;6.75;3.72;;;;;;;;;;5033452;28;20208;-67
2023/10/12 02:58:32;;;;;;;8.35;4.03;;;;;;;;;;5032578;28;20212;-67
2023/10/12 03:01:12;;;;;;;7.07;3.78;;;;;;;;;;5038852;28;20218;-67
2023/10/12 03:03:44;;;;;;;9.32;3.83;;;;;;;;;;5031017;28;20196;-67
2023/10/12 03:06:12;;;;;;;6.50;3.70;;;;;;;;;;5032900;28;20215;-66
2023/10/12 03:09:02;;;;;;;6.05;3.88;;;;;;;;;;5031212;28;20219;-67
2023/10/12 03:11:31;;;;;;;6.70;3.65;;;;;;;;;;5034428;28;20274;-67
2023/10/12 03:14:01;;;;;;;7.72;3.90;;;;;;;;;;5037423;28;20282;-67
2023/10/12 03:16:33;;;;;;;9.40;3.92;;;;;;;;;;5031232;28;20204;-67
2023/10/12 03:19:17;;;;;;;6.60;4.25;;;;;;;;;;5032527;28;20208;-67
2023/10/12 03:21:46;;;;;;;6.38;3.97;;;;;;;;;;5034606;28;20227;-67
2023/10/12 03:24:14;;;;;;;9.98;3.88;;;;;;;;;;5032437;28;20200;-67
2023/10/12 03:26:48;;;;;;;8.90;3.72;;;;;;;;;;5030523;28;20196;-63
2023/10/12 03:29:19;;;;;;;10.43;4.57;;;;;;;;;;5032290;28;20215;-63
2023/10/12 03:31:54;;;;;;;6.45;3.90;;;;;;;;;;5032173;28;20204;-64
2023/10/12 03:34:53;;;;;;;10.32;3.80;;;;;;;;;;5031818;28;20200;-63
2023/10/12 03:37:37;;;;;;;7.13;3.92;;;;;;;;;;5033333;28;20219;-63
2023/10/12 03:40:49;;;;;;;6.30;3.13;;;;;;;;;;5033866;28;20211;-62
2023/10/12 03:42:57;;;;;;;4.55;3.25;;;;;;;;;;5034028;28;20209;-63
2023/10/12 03:45:33;;;;;;;8.10;3.90;;;;;;;;;;5031995;28;20238;-63
2023/10/12 03:48:24;;;;;;;5.88;3.83;;;;;;;;;;5030816;28;20228;-63
2023/10/12 03:50:59;;;;;;;7.95;3.90;;;;;;;;;;5033081;28;20204;-63
2023/10/12 03:53:35;;;;;;;7.05;3.63;;;;;;;;;;5030800;28;20231;-63
2023/10/12 03:56:07;;;;;;;8.32;4.07;;;;;;;;;;5029917;28;20514;-63
2023/10/12 03:58:39;;;;;;;5.15;3.40;;;;;;;;;;5032265;28;20196;-64
2023/10/12 04:01:10;;;;;;;7.10;3.60;;;;;;;;;;5032980;28;20235;-63
2023/10/12 04:03:40;;;;;;;7.18;3.92;;;;;;;;;;5030207;28;20240;-63
2023/10/12 04:06:23;;;;;;;8.00;4.20;;;;;;;;;;5029913;28;20219;-63
2023/10/12 04:08:51;;;;;;;9.75;3.95;;;;;;;;;;5025412;28;20216;-63
2023/10/12 04:16:47;;;;;;;8.77;4.13;;;;;;;;;;5025366;28;20210;-63
2023/10/12 04:19:22;;;;;;;6.97;4.40;;;;;;;;;;5025480;28;20250;-63
2023/10/12 04:22:16;;;;;;;8.18;4.00;;;;;;;;;;5025970;28;20319;-63
2023/10/12 04:24:43;;;;;;;9.93;4.55;;;;;;;;;;5026935;28;20204;-63
2023/10/12 04:27:24;;;;;;;8.38;4.40;;;;;;;;;;5029835;28;20295;-65
2023/10/12 04:29:57;;;;;;;7.47;3.70;;;;;;;;;;5030148;28;20223;-63
2023/10/12 04:32:53;;;;;;;6.47;3.97;;;;;;;;;;5032255;28;20196;-63
2023/10/12 04:35:29;;;;;;;6.47;3.58;;;;;;;;;;5024051;28;20200;-63
2023/10/12 04:37:56;;;;;;;9.63;4.38;;;;;;;;;;5030844;28;20203;-67
2023/10/12 04:40:38;;;;;;;8.27;3.75;;;;;;;;;;5029186;28;20204;-67
2023/10/12 04:43:06;;;;;;;5.85;3.70;;;;;;;;;;5027960;28;20211;-67
2023/10/12 04:48:21;;;;;;;7.95;4.00;;;;;;;;;;5024649;28;20222;-67
2023/10/12 04:50:52;;;;;;;6.78;3.83;;;;;;;;;;5028060;28;20212;-67
2023/10/12 04:53:28;;;;;;;9.70;4.20;;;;;;;;;;5022685;28;20212;-66
2023/10/12 04:56:09;;;;;;;7.53;4.07;;;;;;;;;;5023166;28;20256;-66
2023/10/12 04:58:36;;;;;;;5.82;3.58;;;;;;;;;;5025946;28;20255;-66
2023/10/12 05:01:18;;;;;;;5.90;3.75;;;;;;;;;;5022858;28;20204;-67
2023/10/12 05:04:05;;;;;;;6.88;3.85;;;;;;;;;;5025364;28;20314;-66
2023/10/12 05:06:32;;;;;;;8.35;3.95;;;;;;;;;;5035132;28;20242;-67
2023/10/12 05:09:04;;;;;;;8.32;4.00;;;;;;;;;;5028425;28;20228;-67
2023/10/12 05:11:32;;;;;;;6.60;4.10;;;;;;;;;;5027186;28;20339;-66
2023/10/12 05:14:01;;;;;;;6.05;3.75;;;;;;;;;;5022717;28;20323;-66
2023/10/12 05:16:31;;;;;;;8.70;3.47;;;;;;;;;;5027397;28;20212;-66
2023/10/12 05:18:59;;;;;;;5.80;3.88;;;;;;;;;;5024589;28;20215;-66
2023/10/12 05:21:26;;;;;;;5.88;3.38;;;;;;;;;;5037723;28;20339;-66
2023/10/12 05:23:54;;;;;;;7.07;3.83;;;;;;;;;;5032242;28;20288;-66
2023/10/12 05:26:25;;;;;;;8.60;3.63;;;;;;;;;;5036913;28;20200;-66
2023/10/12 05:29:17;;;;;;;6.28;4.05;;;;;;;;;;5026598;28;20228;-66
2023/10/12 05:31:58;;;;;;;11.13;4.38;;;;;;;;;;5029278;28;20283;-66
2023/10/12 05:34:44;;;;;;;6.72;3.85;;;;;;;;;;5020575;28;20294;-66
2023/10/12 05:37:24;;;;;;;9.05;4.13;;;;;;;;;;5030434;28;20204;-66
2023/10/12 05:39:51;;;;;;;7.07;4.25;;;;;;;;;;5034934;28;20267;-66
2023/10/12 05:42:22;;;;;;;6.65;3.55;;;;;;;;;;5030223;28;20196;-66
2023/10/12 05:44:49;;;;;;;5.15;4.05;;;;;;;;;;5026171;28;20270;-66
2023/10/12 05:47:28;;;;;;;6.90;3.72;;;;;;;;;;5038513;28;20207;-63
2023/10/12 05:49:57;;;;;;;6.03;3.70;;;;;;;;;;5030933;28;20219;-62
2023/10/12 05:52:25;;;;;;;6.57;3.67;;;;;;;;;;5031695;28;21582;-62
2023/10/12 05:54:57;;;;;;;7.55;3.80;;;;;;;;;;5032403;28;20200;-62
2023/10/12 05:57:25;;;;;;;7.75;3.92;;;;;;;;;;5040069;28;20207;-64
2023/10/12 05:59:58;;;;;;;9.07;4.70;;;;;;;;;;5036661;28;20207;-63
2023/10/12 06:02:26;;;;;;;7.97;4.32;;;;;;;;;;5027485;28;20210;-63
2023/10/12 06:04:54;;;;;;;7.57;3.75;;;;;;;;;;5024563;28;20204;-62
2023/10/12 06:07:22;;;;;;;6.93;3.78;;;;;;;;;;5031126;28;20200;-63
2023/10/12 06:09:52;;;;;;;7.20;3.67;;;;;;;;;;5031040;28;20252;-63
2023/10/12 06:12:24;;;;;;;9.15;3.90;;;;;;;;;;5027540;28;20208;-63
2023/10/12 06:14:53;;;;;;;7.80;3.75;;;;;;;;;;5030847;28;20200;-62
2023/10/12 06:17:30;;;;;;;7.10;3.60;;;;;;;;;;5030731;28;20219;-62
2023/10/12 06:20:10;;;;;;;7.30;4.13;;;;;;;;;;5032613;28;20313;-62
2023/10/12 06:22:38;;;;;;;8.20;4.03;;;;;;;;;;5031107;28;20262;-62
2023/10/12 06:25:11;;;;;;;6.35;3.55;;;;;;;;;;5033826;28;21049;-63
2023/10/12 06:27:38;;;;;;;9.77;3.65;;;;;;;;;;5046125;28;20200;-63
2023/10/12 06:30:16;;;;;;;6.32;3.90;;;;;;;;;;5039862;28;20311;-63
2023/10/12 06:32:46;;;;;;;6.50;3.75;;;;;;;;;;5031111;28;20208;-63
2023/10/12 06:35:24;;;;;;;8.00;3.50;;;;;;;;;;5031676;28;20205;-62
2023/10/12 06:38:15;;;;;;;13.15;4.63;;;;;;;;;;5038580;28;20195;-63
2023/10/12 06:40:48;;;;;;;13.32;4.10;;;;;;;;;;5042001;28;20212;-62
2023/10/12 06:46:03;;;;;;;9.05;4.00;;;;;;;;;;5033541;28;20195;-63
2023/10/12 06:48:46;;;;;;;5.45;4.10;;;;;;;;;;5032776;28;20219;-62
2023/10/12 06:51:15;;;;;;;9.13;3.88;;;;;;;;;;5032925;28;20208;-64
2023/10/12 06:53:44;;;;;;;8.93;4.50;;;;;;;;;;5032942;28;20214;-63
2023/10/12 06:56:24;;;;;;;5.80;3.83;;;;;;;;;;5040073;28;20196;-66
2023/10/12 07:01:37;;;;;;;4.50;3.33;;;;;;;;;;5033883;28;20195;-68
2023/10/12 07:04:08;;;;;;;8.40;4.13;;;;;;;;;;5034828;28;20201;-66
2023/10/12 07:06:39;;;;;;;7.68;4.22;;;;;;;;;;5030732;28;20208;-67
2023/10/12 07:09:07;;;;;;;5.40;3.72;;;;;;;;;;5037095;28;20223;-67
2023/10/12 07:11:34;;;;;;;7.88;3.90;;;;;;;;;;5048628;28;20233;-67
2023/10/12 07:14:05;;;;;;;7.75;3.97;;;;;;;;;;5039138;28;20211;-67
2023/10/12 07:16:36;;;;;;;8.60;4.68;;;;;;;;;;5029296;28;20206;-67
2023/10/12 07:19:05;;;;;;;4.95;4.10;;;;;;;;;;5037178;28;20234;-67
2023/10/12 07:21:32;;;;;;;10.20;4.72;;;;;;;;;;5039438;28;20224;-67
2023/10/12 07:24:07;;;;;;;7.78;4.13;;;;;;;;;;5025019;28;20204;-66
2023/10/12 07:26:35;;;;;;;8.07;4.30;;;;;;;;;;5029153;28;20196;-66
2023/10/12 07:29:19;;;;;;;13.27;4.40;;;;;;;;;;5032036;28;20232;-67
2023/10/12 07:31:48;;;;;;;5.32;3.97;;;;;;;;;;5027700;28;20275;-67
2023/10/12 07:34:18;;;;;;;9.10;5.45;;;;;;;;;;5032596;28;20274;-67
2023/10/12 07:36:52;;;;;;;8.98;4.53;;;;;;;;;;5029405;28;20211;-67
2023/10/12 07:39:23;;;;;;;5.88;4.13;;;;;;;;;;5030440;28;20200;-68
2023/10/12 07:41:56;;;;;;;8.43;4.80;;;;;;;;;;5040238;28;20224;-68
2023/10/12 07:44:25;;;;;;;10.70;4.20;;;;;;;;;;5028818;28;20208;-68
2023/10/12 07:46:56;;;;;;;7.43;4.00;;;;;;;;;;5033514;28;20223;-67
2023/10/12 07:49:29;;;;;;;10.52;5.50;;;;;;;;;;5030830;28;20258;-68
2023/10/12 07:52:09;;;;;;;9.35;4.50;;;;;;;;;;5028793;28;20204;-68
2023/10/12 07:54:54;;;;;;;6.55;4.45;;;;;;;;;;5028871;28;20219;-69
2023/10/12 07:57:22;;;;;;;6.80;3.72;;;;;;;;;;5036581;28;20211;-68
2023/10/12 07:59:59;;;;;;;7.97;4.20;;;;;;;;;;5031572;28;20199;-68
2023/10/12 08:02:42;;;;;;;6.93;4.60;;;;;;;;;;5028600;28;20206;-68
2023/10/12 08:05:16;;;;;;;6.32;4.28;;;;;;;;;;5031977;28;20204;-69
2023/10/12 08:07:59;;;;;;;10.90;4.13;;;;;;;;;;5027108;28;20204;-68
2023/10/12 08:10:56;;;;;;;5.30;3.65;;;;;;;;;;5030781;28;20238;-68
2023/10/12 08:13:26;;;;;;;6.05;3.83;;;;;;;;;;5032850;28;20350;-68
2023/10/12 08:15:58;;;;;;;7.40;4.07;;;;;;;;;;5032103;28;20219;-68
2023/10/12 08:21:23;;;;;;;5.78;4.30;;;;;;;;;;5028244;28;20348;-69
2023/10/12 08:23:50;;;;;;;5.32;4.00;;;;;;;;;;5030712;28;20226;-69
2023/10/12 08:26:35;;;;;;;12.38;4.85;;;;;;;;;;5029115;28;20196;-69
2023/10/12 08:29:09;;;;;;;6.68;5.03;;;;;;;;;;5031131;28;20239;-69
2023/10/12 08:31:42;;;;;;;7.28;4.75;;;;;;;;;;5034519;28;20214;-70
2023/10/12 08:34:41;;;;;;;5.97;4.10;;;;;;;;;;5027439;28;20219;-69
2023/10/12 08:37:17;;;;;;;6.80;4.40;;;;;;;;;;5023205;28;20200;-70
2023/10/12 08:39:50;;;;;;;7.15;4.55;;;;;;;;;;5030533;28;20262;-70
2023/10/12 08:42:39;;;;;;;7.13;4.63;;;;;;;;;;5029729;28;20204;-70
2023/10/12 08:45:14;;;;;;;8.75;4.75;;;;;;;;;;5028210;28;20212;-70
2023/10/12 08:47:50;;;;;;;7.88;4.88;;;;;;;;;;5027793;28;20214;-69
2023/10/12 08:53:07;;;;;;;9.40;4.82;;;;;;;;;;5015942;28;20207;-70
2023/10/12 08:55:36;;;;;;;7.97;5.30;;;;;;;;;;5029239;28;20212;-70
2023/10/12 08:58:12;;;;;;;11.20;5.00;;;;;;;;;;5025560;28;20214;-69
2023/10/12 09:00:43;;;;;;;8.60;4.72;;;;;;;;;;5027900;28;20188;-69
2023/10/12 09:03:24;;;;;;;8.02;4.63;;;;;;;;;;5027776;28;20208;-69
2023/10/12 09:05:52;;;;;;;7.97;4.90;;;;;;;;;;5032850;28;20262;-69
2023/10/12 09:11:14;;;;;;;7.57;4.85;;;;;;;;;;5027753;28;20307;-68
2023/10/12 09:13:47;;;;;;;8.45;5.10;;;;;;;;;;5032701;28;20199;-68
2023/10/12 09:16:17;;;;;;;7.68;5.40;;;;;;;;;;5029712;28;20219;-68
2023/10/12 09:18:47;;;;;;;7.03;5.60;;;;;;;;;;5032662;28;20200;-68
2023/10/12 09:21:23;;;;;;;7.95;5.00;;;;;;;;;;5022290;28;20254;-68
2023/10/12 09:24:06;;;;;;;6.55;5.55;;;;;;;;;;5011313;28;20279;-68
2023/10/12 09:26:37;;;;;;;8.00;4.97;;;;;;;;;;5007958;28;20205;-69
2023/10/12 09:29:20;;;;;;;7.00;5.10;;;;;;;;;;5013674;28;20232;-69
2023/10/12 09:37:55;;;;;;;8.60;5.65;;;;;;;;;;5021114;28;20235;-69
2023/10/12 10:33:51;;;;;;;7.65;5.07;;;;;;;;;;5058374;28;20226;-71
2023/10/12 10:36:24;;;;;;;9.27;4.97;;;;;;;;;;5056999;28;20217;-71
2023/10/12 10:38:55;;;;;;;9.77;5.38;;;;;;;;;;5055433;28;20318;-70
2023/10/12 10:41:38;;;;;;;12.15;5.72;;;;;;;;;;5059030;28;20200;-70
2023/10/12 10:44:08;;;;;;;9.57;5.65;;;;;;;;;;5060810;28;20214;-70
2023/10/12 10:46:40;;;;;;;7.43;5.53;;;;;;;;;;5052104;28;20199;-70
2023/10/12 10:49:09;;;;;;;8.38;5.50;;;;;;;;;;5054333;28;20199;-70
2023/10/12 10:51:42;;;;;;;9.43;5.95;;;;;;;;;;5056361;28;20199;-70
2023/10/12 10:54:18;;;;;;;14.80;6.22;;;;;;;;;;5057246;28;20198;-70
2023/10/12 10:56:47;;;;;;;9.57;6.00;;;;;;;;;;5063620;28;20199;-70
2023/10/12 10:59:17;;;;;;;9.65;6.32;;;;;;;;;;5048940;28;20421;-69
2023/10/12 11:01:48;;;;;;;10.90;6.45;;;;;;;;;;5055877;28;20277;-71
2023/10/12 11:04:41;;;;;;;15.05;6.93;;;;;;;;;;5049894;28;20234;-71
2023/10/12 11:07:11;;;;;;;7.93;6.25;;;;;;;;;;5053124;28;20226;-70
2023/10/12 11:12:31;;;;;;;7.70;5.72;;;;;;;;;;5050054;28;20207;-69
2023/10/12 11:15:00;;;;;;;8.63;5.35;;;;;;;;;;5059954;28;20203;-69
2023/10/12 11:17:30;;;;;;;7.05;5.38;;;;;;;;;;5054767;28;20199;-69
2023/10/12 11:19:58;;;;;;;9.15;6.15;;;;;;;;;;5059924;28;20206;-69
2023/10/12 11:22:26;;;;;;;6.30;5.07;;;;;;;;;;5065307;28;20314;-69
2023/10/12 11:24:54;;;;;;;7.60;4.60;;;;;;;;;;5053515;28;20290;-69
2023/10/12 11:27:32;;;;;;;7.47;5.45;;;;;;;;;;5048900;28;20203;-69
2023/10/12 11:30:05;;;;;;;8.23;5.43;;;;;;;;;;5042022;28;20215;-69
2023/10/12 11:32:33;;;;;;;6.57;5.00;;;;;;;;;;5049009;28;20241;-69
2023/10/12 11:35:01;;;;;;;6.60;4.50;;;;;;;;;;5056876;28;20218;-69
2023/10/12 11:37:29;;;;;;;8.88;6.13;;;;;;;;;;5055453;28;20210;-64
2023/10/12 11:39:57;;;;;;;7.70;5.75;;;;;;;;;;5050635;28;20290;-64
2023/10/12 11:42:25;;;;;;;9.98;5.72;;;;;;;;;;5053147;28;20199;-64
2023/10/12 11:44:52;;;;;;;7.38;5.22;;;;;;;;;;5060201;28;20203;-64
2023/10/12 11:47:37;;;;;;;9.05;6.53;;;;;;;;;;5056130;28;20299;-64
2023/10/12 11:50:09;;;;;;;7.32;6.00;;;;;;;;;;5049408;28;20258;-65
2023/10/12 11:52:40;;;;;;;7.93;5.40;;;;;;;;;;5052422;28;20227;-64
2023/10/12 11:55:18;;;;;;;6.13;5.38;;;;;;;;;;5051768;28;20207;-64
2023/10/12 11:57:48;;;;;;;9.60;6.15;;;;;;;;;;5057528;28;20203;-64
2023/10/12 12:00:21;;;;;;;12.77;6.90;;;;;;;;;;5057326;28;20195;-64
2023/10/12 12:02:52;;;;;;;10.55;6.40;;;;;;;;;;5056119;28;20263;-64
2023/10/12 12:05:25;;;;;;;6.20;5.60;;;;;;;;;;5037517;28;20204;-63
2023/10/12 12:07:53;;;;;;;8.18;6.18;;;;;;;;;;5054170;28;20249;-64
2023/10/12 12:10:38;;;;;;;8.13;6.20;;;;;;;;;;5052340;28;20246;-64
2023/10/12 12:13:08;;;;;;;8.57;5.90;;;;;;;;;;5048341;28;20218;-63
2023/10/12 12:15:36;;;;;;;9.25;6.10;;;;;;;;;;5054320;28;20293;-64
2023/10/12 12:18:05;;;;;;;9.77;6.60;;;;;;;;;;5055512;28;20203;-64
2023/10/12 12:20:39;;;;;;;8.80;6.18;;;;;;;;;;5054072;28;20235;-64
2023/10/12 12:23:06;;;;;;;10.05;6.15;;;;;;;;;;5050018;28;20223;-64
2023/10/12 12:25:38;;;;;;;7.35;6.07;;;;;;;;;;5047986;28;20261;-63
2023/10/12 12:28:07;;;;;;;9.25;6.78;;;;;;;;;;5050930;28;20212;-63
2023/10/12 12:30:39;;;;;;;11.20;6.93;;;;;;;;;;5051326;28;20242;-63
2023/10/12 12:33:15;;;;;;;11.98;6.47;;;;;;;;;;5050238;28;20235;-63
2023/10/12 12:35:46;;;;;;;8.63;6.80;;;;;;;;;;5050093;28;20207;-64
2023/10/12 12:38:25;;;;;;;8.70;6.82;;;;;;;;;;5044803;28;20208;-64
2023/10/12 12:40:52;;;;;;;9.93;7.43;;;;;;;;;;5049038;28;20195;-63
2023/10/12 12:43:20;;;;;;;8.65;7.22;;;;;;;;;;5050124;28;20292;-63
2023/10/12 12:45:47;;;;;;;9.43;6.55;;;;;;;;;;5055216;28;20210;-69
2023/10/12 12:48:14;;;;;;;9.15;6.78;;;;;;;;;;5049181;28;20208;-68
2023/10/12 12:50:43;;;;;;;9.13;6.90;;;;;;;;;;5055631;28;20435;-69
2023/10/12 12:53:11;;;;;;;9.55;7.38;;;;;;;;;;5052084;28;20204;-68
2023/10/12 12:55:39;;;;;;;9.25;6.88;;;;;;;;;;5056148;28;20203;-68
2023/10/12 12:58:09;;;;;;;9.18;7.38;;;;;;;;;;5058920;28;20207;-69
2023/10/12 13:00:36;;;;;;;10.65;6.90;;;;;;;;;;5042401;28;20242;-69
2023/10/12 13:03:04;;;;;;;10.85;7.70;;;;;;;;;;5053048;28;20269;-67
2023/10/12 13:05:31;;;;;;;11.50;7.18;;;;;;;;;;5053138;28;20294;-67
2023/10/12 13:08:00;;;;;;;11.30;7.20;;;;;;;;;;5048250;28;20206;-68
2023/10/12 13:10:29;;;;;;;11.90;7.35;;;;;;;;;;5044924;28;20230;-68
2023/10/12 13:12:57;;;;;;;11.18;7.05;;;;;;;;;;5045148;28;20214;-69
2023/10/12 13:15:24;;;;;;;11.10;6.82;;;;;;;;;;5048113;28;20204;-69
2023/10/12 13:17:51;;;;;;;8.23;6.70;;;;;;;;;;5054332;28;20390;-68
2023/10/12 13:20:21;;;;;;;8.35;7.07;;;;;;;;;;5045115;28;20204;-68
2023/10/12 13:22:49;;;;;;;8.82;7.05;;;;;;;;;;5046162;28;20207;-68
2023/10/12 13:25:17;;;;;;;14.20;7.78;;;;;;;;;;5044085;28;20213;-67
2023/10/12 13:27:49;;;;;;;10.70;7.05;;;;;;;;;;5045935;28;20211;-68
2023/10/12 13:30:16;;;;;;;12.68;7.05;;;;;;;;;;5044069;28;20261;-68
2023/10/12 13:32:44;;;;;;;10.52;7.45;;;;;;;;;;5042956;28;20237;-68
2023/10/12 13:35:31;;;;;;;13.05;7.25;;;;;;;;;;5044957;28;20226;-69
2023/10/12 13:38:02;;;;;;;11.45;7.10;;;;;;;;;;5044983;28;20210;-68
2023/10/12 13:40:30;;;;;;;13.30;6.95;;;;;;;;;;5052958;28;20290;-68
2023/10/12 13:43:06;;;;;;;11.95;7.28;;;;;;;;;;5050552;28;20204;-69
2023/10/12 13:45:33;;;;;;;11.85;6.95;;;;;;;;;;5053519;28;20199;-68
2023/10/12 13:48:01;;;;;;;10.07;6.82;;;;;;;;;;5052384;28;20309;-69
2023/10/12 13:50:28;;;;;;;10.43;6.43;;;;;;;;;;5056425;28;20198;-69
2023/10/12 13:52:55;;;;;;;11.80;6.85;;;;;;;;;;5053902;28;20206;-69
2023/10/12 13:55:26;;;;;;;10.43;6.85;;;;;;;;;;5054576;28;20203;-69
2023/10/12 13:57:57;;;;;;;12.70;7.50;;;;;;;;;;5052004;28;20301;-63
2023/10/12 14:00:26;;;;;;;9.77;7.45;;;;;;;;;;5056751;28;20198;-64
2023/10/12 14:02:54;;;;;;;11.23;7.65;;;;;;;;;;5052393;28;20199;-63
2023/10/12 14:05:27;;;;;;;9.27;7.18;;;;;;;;;;5053144;28;20269;-63
2023/10/12 14:07:54;;;;;;;9.18;6.95;;;;;;;;;;5055485;28;20211;-63
2023/10/12 14:10:22;;;;;;;9.32;7.25;;;;;;;;;;5059120;28;20240;-64
2023/10/12 14:12:49;;;;;;;11.63;7.13;;;;;;;;;;5048069;28;20230;-64
2023/10/12 14:15:16;;;;;;;10.90;7.30;;;;;;;;;;5057086;28;20208;-63
2023/10/12 14:17:44;;;;;;;11.60;7.25;;;;;;;;;;5058709;28;20212;-64
2023/10/12 14:20:13;;;;;;;10.18;7.53;;;;;;;;;;5045102;28;20204;-63
2023/10/12 14:22:42;;;;;;;11.25;6.75;;;;;;;;;;5044668;28;20204;-63
2023/10/12 14:25:17;;;;;;;11.77;7.50;;;;;;;;;;5045549;28;20242;-63
2023/10/12 14:27:44;;;;;;;8.77;7.13;;;;;;;;;;5047160;28;20314;-63
2023/10/12 14:30:14;;;;;;;9.30;7.13;;;;;;;;;;5045961;28;20211;-64
2023/10/12 14:32:42;;;;;;;12.25;7.07;;;;;;;;;;5040870;28;20313;-63
2023/10/12 14:35:12;;;;;;;10.10;6.50;;;;;;;;;;5044493;28;20200;-64
2023/10/12 14:37:39;;;;;;;10.18;6.93;;;;;;;;;;5041345;28;20199;-63
2023/10/12 14:40:10;;;;;;;11.75;7.38;;;;;;;;;;5050862;28;20234;-63
2023/10/12 14:42:40;;;;;;;11.27;7.13;;;;;;;;;;5050214;28;20267;-63
2023/10/12 14:45:08;;;;;;;9.82;7.47;;;;;;;;;;5048744;28;20549;-64
2023/10/12 14:47:36;;;;;;;11.07;7.05;;;;;;;;;;5055913;28;20270;-63
2023/10/12 14:50:05;;;;;;;10.80;7.43;;;;;;;;;;5054672;28;20209;-64
2023/10/12 14:52:38;;;;;;;10.90;7.20;;;;;;;;;;5058329;28;20318;-63
2023/10/12 14:55:10;;;;;;;12.18;7.18;;;;;;;;;;5053894;28;20211;-63
2023/10/12 14:57:39;;;;;;;10.25;7.25;;;;;;;;;;5060216;28;20221;-63
2023/10/12 15:00:10;;;;;;;13.02;7.25;;;;;;;;;;5054953;28;20203;-63
2023/10/12 15:02:37;;;;;;;9.98;7.43;;;;;;;;;;5056671;28;20192;-63
2023/10/12 15:05:05;;;;;;;8.45;6.80;;;;;;;;;;5061788;28;20291;-63
2023/10/12 15:07:37;;;;;;;11.43;7.45;;;;;;;;;;5057066;28;20264;-64
2023/10/12 15:10:06;;;;;;;10.48;6.90;;;;;;;;;;5055903;28;20256;-63
2023/10/12 15:12:34;;;;;;;8.05;6.82;;;;;;;;;;5050795;28;20227;-64
2023/10/12 15:15:08;;;;;;;11.20;7.40;;;;;;;;;;5052308;28;20207;-63
2023/10/12 15:17:37;;;;;;;10.48;7.03;;;;;;;;;;5054960;28;20203;-63
2023/10/12 15:20:06;;;;;;;9.93;7.38;;;;;;;;;;5053278;28;20262;-63
2023/10/12 15:22:34;;;;;;;10.85;6.93;;;;;;;;;;5050599;28;20286;-64
2023/10/12 15:25:04;;;;;;;8.70;6.55;;;;;;;;;;5060290;28;20200;-63
2023/10/12 15:27:32;;;;;;;10.07;6.35;;;;;;;;;;5052754;28;20196;-63
2023/10/12 15:29:59;;;;;;;10.60;6.70;;;;;;;;;;5060300;28;20214;-63
2023/10/12 15:32:27;;;;;;;9.35;6.72;;;;;;;;;;5056357;28;20240;-64
2023/10/12 15:34:56;;;;;;;8.45;6.97;;;;;;;;;;5056549;28;20207;-63
2023/10/12 15:37:24;;;;;;;9.88;6.43;;;;;;;;;;5057973;28;20210;-64
2023/10/12 15:39:53;;;;;;;10.68;7.05;;;;;;;;;;5056864;28;20260;-63
2023/10/12 15:42:20;;;;;;;11.45;6.85;;;;;;;;;;5048302;28;20214;-63
2023/10/12 15:44:49;;;;;;;11.95;7.18;;;;;;;;;;5061359;28;20214;-64
2023/10/12 15:47:16;;;;;;;9.75;6.88;;;;;;;;;;5052833;28;20272;-63
2023/10/12 15:49:43;;;;;;;12.07;6.47;;;;;;;;;;5064838;28;20215;-63
2023/10/12 15:52:11;;;;;;;10.13;6.65;;;;;;;;;;5048521;28;20629;-63
2023/10/12 15:54:38;;;;;;;11.93;6.53;;;;;;;;;;5051258;28;20199;-63
2023/10/12 15:57:06;;;;;;;9.88;6.97;;;;;;;;;;5056794;28;20219;-63
2023/10/12 15:59:33;;;;;;;11.07;7.13;;;;;;;;;;5050099;28;20207;-63
2023/10/12 16:02:01;;;;;;;11.45;6.60;;;;;;;;;;5048312;28;20213;-63
2023/10/12 16:04:30;;;;;;;11.52;6.85;;;;;;;;;;5046198;28;20203;-64
2023/10/12 16:07:05;;;;;;;10.00;6.90;;;;;;;;;;5050823;28;20204;-63
2023/10/12 16:09:32;;;;;;;11.13;7.35;;;;;;;;;;5047638;28;20252;-64
2023/10/12 16:11:59;;;;;;;11.43;7.43;;;;;;;;;;5051651;28;20242;-64
2023/10/12 16:14:29;;;;;;;10.60;7.38;;;;;;;;;;5050284;28;21128;-64
2023/10/12 16:16:56;;;;;;;13.38;7.32;;;;;;;;;;5052108;28;20204;-68
2023/10/12 16:19:24;;;;;;;10.95;7.03;;;;;;;;;;5051778;28;20215;-68
2023/10/12 16:21:52;;;;;;;9.18;7.20;;;;;;;;;;5047006;28;20294;-68
2023/10/12 16:24:19;;;;;;;9.15;6.50;;;;;;;;;;5047953;28;20217;-68
2023/10/12 16:26:48;;;;;;;9.40;6.43;;;;;;;;;;5048149;28;20225;-68
2023/10/12 16:29:15;;;;;;;16.52;6.93;;;;;;;;;;5046141;28;20204;-68
2023/10/12 16:31:43;;;;;;;11.93;7.63;;;;;;;;;;5050483;28;20233;-68